sensor_id;sensor_type;location;lat;lon;timestamp;pressure;altitude;pressure_sealevel;temperature;humidity
20019;BME280;10170;42.502;26.526;2023-03-01T00:01:05;100463.91;;;5.68;100.00
20019;BME280;10170;42.502;26.526;2023-03-01T00:03:33;100457.53;;;5.53;100.00
20019;BME280;10170;42.502;26.526;2023-03-01T00:06:01;100468.91;;;5.53;100.00
20019;BME280;10170;42.502;26.526;2023-03-01T00:08:27;100486.00;;;5.67;100.00
20019;BME280;10170;42.502;26.526;2023-03-01T00:11:24;100479.78;;;5.76;100.00
20019;BME280;10170;42.502;26.526;2023-03-01T00:13:54;100481.34;;;5.61;100.00
20019;BME280;10170;42.502;26.526;2023-03-01T00:16:33;100488.78;;;5.65;100.00
20019;BME280;10170;42.502;26.526;2023-03-01T00:19:01;100502.09;;;5.81;100.00
20019;BME280;10170;42.502;26.526;2023-03-01T00:21:29;100501.97;;;5.65;100.00
20019;BME280;10170;42.502;26.526;2023-03-01T00:23:56;100504.38;;;5.76;100.00
20019;BME280;10170;42.502;26.526;2023-03-01T00:26:24;100513.88;;;5.69;100.00
20019;BME280;10170;42.502;26.526;2023-03-01T00:28:54;100513.53;;;5.64;100.00
20019;BME280;10170;42.502;26.526;2023-03-01T00:31:29;100511.78;;;5.73;100.00
20019;BME280;10170;42.502;26.526;2023-03-01T00:33:59;100497.78;;;5.55;100.00
20019;BME280;10170;42.502;26.526;2023-03-01T00:36:29;100500.69;;;5.69;100.00
20019;BME280;10170;42.502;26.526;2023-03-01T00:38:56;100497.38;;;5.67;100.00
20019;BME280;10170;42.502;26.526;2023-03-01T00:41:24;100494.22;;;5.64;100.00
20019;BME280;10170;42.502;26.526;2023-03-01T00:43:53;100501.31;;;5.63;100.00
20019;BME280;10170;42.502;26.526;2023-03-01T00:46:22;100502.13;;;5.64;100.00
20019;BME280;10170;42.502;26.526;2023-03-01T00:48:50;100504.25;;;5.60;100.00
20019;BME280;10170;42.502;26.526;2023-03-01T00:51:26;100500.56;;;5.53;100.00
20019;BME280;10170;42.502;26.526;2023-03-01T00:53:54;100502.22;;;5.54;100.00
20019;BME280;10170;42.502;26.526;2023-03-01T00:56:23;100501.31;;;5.63;100.00
20019;BME280;10170;42.502;26.526;2023-03-01T00:58:49;100502.38;;;5.53;100.00
20019;BME280;10170;42.502;26.526;2023-03-01T01:01:23;100499.38;;;5.48;100.00
20019;BME280;10170;42.502;26.526;2023-03-01T01:03:56;100493.94;;;5.49;100.00
20019;BME280;10170;42.502;26.526;2023-03-01T01:06:29;100484.94;;;5.60;100.00
20019;BME280;10170;42.502;26.526;2023-03-01T01:08:57;100488.34;;;5.52;100.00
20019;BME280;10170;42.502;26.526;2023-03-01T01:11:27;100488.75;;;5.57;100.00
20019;BME280;10170;42.502;26.526;2023-03-01T01:13:55;100470.94;;;5.59;100.00
20019;BME280;10170;42.502;26.526;2023-03-01T01:16:24;100479.38;;;5.63;100.00
20019;BME280;10170;42.502;26.526;2023-03-01T01:18:51;100468.00;;;5.62;100.00
20019;BME280;10170;42.502;26.526;2023-03-01T01:21:21;100472.44;;;5.62;100.00
20019;BME280;10170;42.502;26.526;2023-03-01T01:23:48;100462.75;;;5.70;100.00
20019;BME280;10170;42.502;26.526;2023-03-01T01:26:18;100457.38;;;5.54;100.00
20019;BME280;10170;42.502;26.526;2023-03-01T01:28:46;100456.25;;;5.57;100.00
20019;BME280;10170;42.502;26.526;2023-03-01T01:31:14;100457.97;;;5.66;100.00
20019;BME280;10170;42.502;26.526;2023-03-01T01:33:41;100478.06;;;5.67;100.00
20019;BME280;10170;42.502;26.526;2023-03-01T01:36:08;100477.78;;;5.70;100.00
20019;BME280;10170;42.502;26.526;2023-03-01T01:38:37;100481.75;;;5.74;100.00
20019;BME280;10170;42.502;26.526;2023-03-01T01:41:05;100481.38;;;5.69;100.00
20019;BME280;10170;42.502;26.526;2023-03-01T01:43:47;100477.63;;;5.71;100.00
20019;BME280;10170;42.502;26.526;2023-03-01T01:46:30;100480.59;;;5.68;100.00
20019;BME280;10170;42.502;26.526;2023-03-01T01:57:12;100448.03;;;5.60;100.00
20019;BME280;10170;42.502;26.526;2023-03-01T01:59:43;100461.72;;;5.63;100.00
20019;BME280;10170;42.502;26.526;2023-03-01T02:02:12;100461.13;;;5.69;100.00
20019;BME280;10170;42.502;26.526;2023-03-01T02:04:39;100456.78;;;5.60;100.00
20019;BME280;10170;42.502;26.526;2023-03-01T02:07:14;100440.28;;;5.58;100.00
20019;BME280;10170;42.502;26.526;2023-03-01T02:09:45;100424.75;;;5.55;100.00
20019;BME280;10170;42.502;26.526;2023-03-01T02:12:18;100452.72;;;5.74;100.00
20019;BME280;10170;42.502;26.526;2023-03-01T02:14:45;100439.50;;;5.66;100.00
20019;BME280;10170;42.502;26.526;2023-03-01T02:17:14;100438.06;;;5.71;100.00
20019;BME280;10170;42.502;26.526;2023-03-01T02:22:29;100428.13;;;5.65;100.00
20019;BME280;10170;42.502;26.526;2023-03-01T02:28:02;100437.41;;;5.77;100.00
20019;BME280;10170;42.502;26.526;2023-03-01T02:30:33;100440.53;;;5.73;100.00
20019;BME280;10170;42.502;26.526;2023-03-01T02:33:00;100446.69;;;5.81;100.00
20019;BME280;10170;42.502;26.526;2023-03-01T02:35:35;100452.28;;;5.78;100.00
20019;BME280;10170;42.502;26.526;2023-03-01T02:38:07;100451.38;;;5.87;100.00
20019;BME280;10170;42.502;26.526;2023-03-01T02:40:36;100451.78;;;6.00;100.00
20019;BME280;10170;42.502;26.526;2023-03-01T02:43:06;100429.63;;;5.68;100.00
20019;BME280;10170;42.502;26.526;2023-03-01T02:45:35;100444.81;;;5.91;100.00
20019;BME280;10170;42.502;26.526;2023-03-01T02:48:02;100438.34;;;5.86;100.00
20019;BME280;10170;42.502;26.526;2023-03-01T02:53:32;100446.69;;;5.81;100.00
20019;BME280;10170;42.502;26.526;2023-03-01T02:55:53;100433.44;;;5.73;100.00
20019;BME280;10170;42.502;26.526;2023-03-01T02:58:20;100439.25;;;5.77;100.00
20019;BME280;10170;42.502;26.526;2023-03-01T03:00:47;100451.25;;;5.71;100.00
20019;BME280;10170;42.502;26.526;2023-03-01T03:03:17;100449.81;;;5.77;100.00
20019;BME280;10170;42.502;26.526;2023-03-01T03:05:46;100454.41;;;5.75;100.00
20019;BME280;10170;42.502;26.526;2023-03-01T03:08:12;100454.19;;;5.68;100.00
20019;BME280;10170;42.502;26.526;2023-03-01T03:10:41;100444.38;;;5.78;100.00
20019;BME280;10170;42.502;26.526;2023-03-01T03:13:12;100439.69;;;5.72;100.00
20019;BME280;10170;42.502;26.526;2023-03-01T03:15:40;100449.06;;;5.84;100.00
20019;BME280;10170;42.502;26.526;2023-03-01T03:18:10;100431.25;;;5.69;100.00
20019;BME280;10170;42.502;26.526;2023-03-01T03:20:39;100435.09;;;5.74;100.00
20019;BME280;10170;42.502;26.526;2023-03-01T03:23:06;100438.22;;;5.70;100.00
20019;BME280;10170;42.502;26.526;2023-03-01T03:25:33;100430.75;;;5.65;100.00
20019;BME280;10170;42.502;26.526;2023-03-01T03:28:06;100460.66;;;5.74;100.00
20019;BME280;10170;42.502;26.526;2023-03-01T03:30:38;100457.44;;;5.62;100.00
20019;BME280;10170;42.502;26.526;2023-03-01T03:33:06;100455.16;;;5.67;100.00
20019;BME280;10170;42.502;26.526;2023-03-01T03:35:45;100448.69;;;5.62;100.00
20019;BME280;10170;42.502;26.526;2023-03-01T03:38:14;100446.53;;;5.57;100.00
20019;BME280;10170;42.502;26.526;2023-03-01T03:40:47;100440.44;;;5.57;100.00
20019;BME280;10170;42.502;26.526;2023-03-01T03:43:17;100443.78;;;5.41;100.00
20019;BME280;10170;42.502;26.526;2023-03-01T03:48:43;100445.09;;;5.45;100.00
20019;BME280;10170;42.502;26.526;2023-03-01T03:51:15;100439.47;;;5.40;100.00
20019;BME280;10170;42.502;26.526;2023-03-01T03:53:43;100422.44;;;5.34;100.00
20019;BME280;10170;42.502;26.526;2023-03-01T03:56:10;100445.44;;;5.42;100.00
20019;BME280;10170;42.502;26.526;2023-03-01T03:58:37;100432.84;;;5.36;100.00
20019;BME280;10170;42.502;26.526;2023-03-01T04:01:06;100441.00;;;5.43;100.00
20019;BME280;10170;42.502;26.526;2023-03-01T04:03:51;100427.66;;;5.44;100.00
20019;BME280;10170;42.502;26.526;2023-03-01T04:06:20;100432.91;;;5.44;100.00
20019;BME280;10170;42.502;26.526;2023-03-01T04:08:47;100436.16;;;5.56;100.00
20019;BME280;10170;42.502;26.526;2023-03-01T04:11:17;100414.47;;;5.44;100.00
20019;BME280;10170;42.502;26.526;2023-03-01T04:13:55;100417.53;;;5.57;100.00
20019;BME280;10170;42.502;26.526;2023-03-01T04:16:23;100426.00;;;5.43;100.00
20019;BME280;10170;42.502;26.526;2023-03-01T04:18:50;100423.03;;;5.46;100.00
20019;BME280;10170;42.502;26.526;2023-03-01T04:21:18;100413.09;;;5.40;100.00
20019;BME280;10170;42.502;26.526;2023-03-01T04:23:46;100408.19;;;5.45;100.00
20019;BME280;10170;42.502;26.526;2023-03-01T04:26:13;100410.19;;;5.43;100.00
20019;BME280;10170;42.502;26.526;2023-03-01T04:28:41;100405.88;;;5.42;100.00
20019;BME280;10170;42.502;26.526;2023-03-01T04:31:15;100410.47;;;5.40;100.00
20019;BME280;10170;42.502;26.526;2023-03-01T04:36:11;100412.59;;;5.36;100.00
20019;BME280;10170;42.502;26.526;2023-03-01T04:38:39;100410.63;;;5.38;100.00
20019;BME280;10170;42.502;26.526;2023-03-01T04:41:08;100399.88;;;5.32;100.00
20019;BME280;10170;42.502;26.526;2023-03-01T04:43:35;100408.47;;;5.34;100.00
20019;BME280;10170;42.502;26.526;2023-03-01T04:46:04;100406.38;;;5.46;100.00
20019;BME280;10170;42.502;26.526;2023-03-01T04:48:32;100409.53;;;5.49;100.00
20019;BME280;10170;42.502;26.526;2023-03-01T04:51:00;100403.06;;;5.44;100.00
20019;BME280;10170;42.502;26.526;2023-03-01T04:53:27;100412.81;;;5.43;100.00
20019;BME280;10170;42.502;26.526;2023-03-01T04:55:55;100407.47;;;5.35;100.00
20019;BME280;10170;42.502;26.526;2023-03-01T04:58:24;100408.47;;;5.34;100.00
20019;BME280;10170;42.502;26.526;2023-03-01T05:00:52;100402.19;;;5.35;100.00
20019;BME280;10170;42.502;26.526;2023-03-01T05:03:20;100409.19;;;5.44;100.00
20019;BME280;10170;42.502;26.526;2023-03-01T05:05:50;100398.94;;;5.41;100.00
20019;BME280;10170;42.502;26.526;2023-03-01T05:08:18;100403.59;;;5.47;100.00
20019;BME280;10170;42.502;26.526;2023-03-01T05:10:48;100413.97;;;5.49;100.00
20019;BME280;10170;42.502;26.526;2023-03-01T05:13:15;100412.69;;;5.53;100.00
20019;BME280;10170;42.502;26.526;2023-03-01T05:15:55;100412.25;;;5.57;100.00
20019;BME280;10170;42.502;26.526;2023-03-01T05:18:27;100420.00;;;5.59;100.00
20019;BME280;10170;42.502;26.526;2023-03-01T05:21:00;100418.44;;;5.48;100.00
20019;BME280;10170;42.502;26.526;2023-03-01T05:23:27;100418.31;;;5.58;100.00
20019;BME280;10170;42.502;26.526;2023-03-01T05:25:57;100423.09;;;5.54;100.00
20019;BME280;10170;42.502;26.526;2023-03-01T05:28:26;100426.91;;;5.60;100.00
20019;BME280;10170;42.502;26.526;2023-03-01T05:30:54;100424.44;;;5.58;100.00
20019;BME280;10170;42.502;26.526;2023-03-01T05:33:21;100414.28;;;5.46;100.00
20019;BME280;10170;42.502;26.526;2023-03-01T05:35:50;100429.19;;;5.55;100.00
20019;BME280;10170;42.502;26.526;2023-03-01T05:38:18;100423.72;;;5.48;100.00
20019;BME280;10170;42.502;26.526;2023-03-01T05:40:46;100428.16;;;5.48;100.00
20019;BME280;10170;42.502;26.526;2023-03-01T05:43:15;100436.28;;;5.54;100.00
20019;BME280;10170;42.502;26.526;2023-03-01T05:45:43;100434.03;;;5.59;100.00
20019;BME280;10170;42.502;26.526;2023-03-01T05:48:11;100441.72;;;5.53;100.00
20019;BME280;10170;42.502;26.526;2023-03-01T05:50:42;100456.94;;;5.59;100.00
20019;BME280;10170;42.502;26.526;2023-03-01T05:53:15;100440.63;;;5.63;100.00
20019;BME280;10170;42.502;26.526;2023-03-01T05:55:43;100450.22;;;5.64;100.00
20019;BME280;10170;42.502;26.526;2023-03-01T05:58:13;100442.97;;;5.66;100.00
20019;BME280;10170;42.502;26.526;2023-03-01T06:00:44;100426.91;;;5.60;100.00
20019;BME280;10170;42.502;26.526;2023-03-01T06:03:12;100436.69;;;5.67;100.00
20019;BME280;10170;42.502;26.526;2023-03-01T06:05:40;100439.31;;;5.59;100.00
20019;BME280;10170;42.502;26.526;2023-03-01T06:08:09;100432.88;;;5.62;100.00
20019;BME280;10170;42.502;26.526;2023-03-01T06:10:36;100432.41;;;5.66;100.00
20019;BME280;10170;42.502;26.526;2023-03-01T06:13:05;100437.69;;;5.66;100.00
20019;BME280;10170;42.502;26.526;2023-03-01T06:15:31;100427.59;;;5.62;100.00
20019;BME280;10170;42.502;26.526;2023-03-01T06:17:58;100435.19;;;5.65;100.00
20019;BME280;10170;42.502;26.526;2023-03-01T06:20:27;100439.16;;;5.61;100.00
20019;BME280;10170;42.502;26.526;2023-03-01T06:22:54;100440.28;;;5.58;100.00
20019;BME280;10170;42.502;26.526;2023-03-01T06:25:23;100428.88;;;5.58;100.00
20019;BME280;10170;42.502;26.526;2023-03-01T06:27:51;100421.97;;;5.57;100.00
20019;BME280;10170;42.502;26.526;2023-03-01T06:30:20;100447.25;;;5.67;100.00
20019;BME280;10170;42.502;26.526;2023-03-01T06:32:48;100439.84;;;5.71;100.00
20019;BME280;10170;42.502;26.526;2023-03-01T06:35:16;100438.91;;;5.72;100.00
20019;BME280;10170;42.502;26.526;2023-03-01T06:37:47;100446.69;;;5.81;100.00
20019;BME280;10170;42.502;26.526;2023-03-01T06:40:15;100447.94;;;5.69;100.00
20019;BME280;10170;42.502;26.526;2023-03-01T06:42:47;100435.19;;;5.65;100.00
20019;BME280;10170;42.502;26.526;2023-03-01T06:45:16;100407.38;;;5.45;100.00
20019;BME280;10170;42.502;26.526;2023-03-01T06:47:45;100427.16;;;5.66;100.00
20019;BME280;10170;42.502;26.526;2023-03-01T06:50:12;100444.03;;;5.81;100.00
20019;BME280;10170;42.502;26.526;2023-03-01T06:52:40;100435.94;;;5.75;100.00
20019;BME280;10170;42.502;26.526;2023-03-01T06:55:07;100444.00;;;5.73;100.00
20019;BME280;10170;42.502;26.526;2023-03-01T06:57:34;100443.25;;;5.81;100.00
20019;BME280;10170;42.502;26.526;2023-03-01T07:00:02;100411.50;;;5.73;100.00
20019;BME280;10170;42.502;26.526;2023-03-01T07:02:29;100436.41;;;5.96;100.00
20019;BME280;10170;42.502;26.526;2023-03-01T07:04:56;100430.78;;;5.91;100.00
20019;BME280;10170;42.502;26.526;2023-03-01T07:07:23;100427.81;;;5.94;100.00
20019;BME280;10170;42.502;26.526;2023-03-01T07:09:50;100429.44;;;5.87;100.00
20019;BME280;10170;42.502;26.526;2023-03-01T07:12:16;100437.19;;;5.88;100.00
20019;BME280;10170;42.502;26.526;2023-03-01T07:14:44;100434.91;;;5.93;100.00
20019;BME280;10170;42.502;26.526;2023-03-01T07:17:11;100438.72;;;5.99;100.00
20019;BME280;10170;42.502;26.526;2023-03-01T07:19:37;100449.59;;;5.96;100.00
20019;BME280;10170;42.502;26.526;2023-03-01T07:22:04;100443.13;;;5.90;100.00
20019;BME280;10170;42.502;26.526;2023-03-01T07:24:34;100434.03;;;5.85;100.00
20019;BME280;10170;42.502;26.526;2023-03-01T07:27:02;100444.66;;;5.93;100.00
20019;BME280;10170;42.502;26.526;2023-03-01T07:29:29;100448.09;;;5.93;100.00
20019;BME280;10170;42.502;26.526;2023-03-01T07:31:56;100439.81;;;5.88;100.00
20019;BME280;10170;42.502;26.526;2023-03-01T07:34:22;100451.56;;;5.94;100.00
20019;BME280;10170;42.502;26.526;2023-03-01T07:36:49;100447.84;;;6.04;100.00
20019;BME280;10170;42.502;26.526;2023-03-01T07:39:16;100445.41;;;6.11;100.00
20019;BME280;10170;42.502;26.526;2023-03-01T07:41:45;100443.56;;;6.03;100.00
20019;BME280;10170;42.502;26.526;2023-03-01T07:44:11;100428.81;;;5.93;100.00
20019;BME280;10170;42.502;26.526;2023-03-01T07:46:38;100427.38;;;5.98;100.00
20019;BME280;10170;42.502;26.526;2023-03-01T07:49:05;100440.00;;;6.20;100.00
20019;BME280;10170;42.502;26.526;2023-03-01T07:51:32;100441.97;;;6.18;100.00
20019;BME280;10170;42.502;26.526;2023-03-01T07:53:59;100447.41;;;6.17;100.00
20019;BME280;10170;42.502;26.526;2023-03-01T07:56:25;100451.56;;;6.19;100.00
20019;BME280;10170;42.502;26.526;2023-03-01T07:58:52;100440.94;;;6.11;100.00
20019;BME280;10170;42.502;26.526;2023-03-01T08:01:20;100414.03;;;6.08;100.00
20019;BME280;10170;42.502;26.526;2023-03-01T08:03:48;100431.22;;;6.12;100.00
20019;BME280;10170;42.502;26.526;2023-03-01T08:06:16;100432.22;;;6.11;100.00
20019;BME280;10170;42.502;26.526;2023-03-01T08:08:44;100445.28;;;6.20;100.00
20019;BME280;10170;42.502;26.526;2023-03-01T08:11:12;100403.09;;;5.95;100.00
20019;BME280;10170;42.502;26.526;2023-03-01T08:13:40;100460.53;;;6.34;100.00
20019;BME280;10170;42.502;26.526;2023-03-01T08:16:10;100432.56;;;6.24;100.00
20019;BME280;10170;42.502;26.526;2023-03-01T08:18:38;100449.25;;;6.24;100.00
20019;BME280;10170;42.502;26.526;2023-03-01T08:21:06;100447.63;;;6.31;100.00
20019;BME280;10170;42.502;26.526;2023-03-01T08:23:34;100445.13;;;6.22;100.00
20019;BME280;10170;42.502;26.526;2023-03-01T08:26:08;100442.50;;;6.30;100.00
20019;BME280;10170;42.502;26.526;2023-03-01T08:28:36;100447.09;;;6.20;100.00
20019;BME280;10170;42.502;26.526;2023-03-01T08:31:12;100428.97;;;6.25;100.00
20019;BME280;10170;42.502;26.526;2023-03-01T08:33:39;100445.78;;;6.24;100.00
20019;BME280;10170;42.502;26.526;2023-03-01T08:36:06;100442.63;;;6.20;100.00
20019;BME280;10170;42.502;26.526;2023-03-01T08:38:34;100444.81;;;6.25;100.00
20019;BME280;10170;42.502;26.526;2023-03-01T08:41:04;100443.19;;;6.32;100.00
20019;BME280;10170;42.502;26.526;2023-03-01T08:43:31;100439.72;;;6.31;100.00
20019;BME280;10170;42.502;26.526;2023-03-01T08:45:58;100442.06;;;6.34;100.00
20019;BME280;10170;42.502;26.526;2023-03-01T08:48:27;100443.19;;;6.32;100.00
20019;BME280;10170;42.502;26.526;2023-03-01T08:50:55;100446.28;;;6.27;100.00
20019;BME280;10170;42.502;26.526;2023-03-01T08:53:22;100443.03;;;6.33;100.00
20019;BME280;10170;42.502;26.526;2023-03-01T08:55:49;100444.31;;;6.29;100.00
20019;BME280;10170;42.502;26.526;2023-03-01T08:58:16;100449.25;;;6.24;100.00
20019;BME280;10170;42.502;26.526;2023-03-01T09:00:43;100440.22;;;6.35;100.00
20019;BME280;10170;42.502;26.526;2023-03-01T09:03:10;100452.31;;;6.46;100.00
20019;BME280;10170;42.502;26.526;2023-03-01T09:05:36;100438.75;;;6.32;100.00
20019;BME280;10170;42.502;26.526;2023-03-01T09:08:03;100449.66;;;6.37;100.00
20019;BME280;10170;42.502;26.526;2023-03-01T09:10:30;100435.72;;;6.27;100.00
20019;BME280;10170;42.502;26.526;2023-03-01T09:12:57;100439.75;;;6.39;100.00
20019;BME280;10170;42.502;26.526;2023-03-01T09:15:24;100433.31;;;6.42;100.00
20019;BME280;10170;42.502;26.526;2023-03-01T09:17:51;100435.16;;;6.42;100.00
20019;BME280;10170;42.502;26.526;2023-03-01T09:20:18;100446.16;;;6.37;100.00
20019;BME280;10170;42.502;26.526;2023-03-01T09:22:45;100444.56;;;6.44;100.00
20019;BME280;10170;42.502;26.526;2023-03-01T09:25:12;100448.69;;;6.47;100.00
20019;BME280;10170;42.502;26.526;2023-03-01T09:27:39;100443.34;;;6.30;100.00
20019;BME280;10170;42.502;26.526;2023-03-01T09:30:06;100429.13;;;6.23;100.00
20019;BME280;10170;42.502;26.526;2023-03-01T09:32:34;100432.28;;;6.27;100.00
20019;BME280;10170;42.502;26.526;2023-03-01T09:35:01;100450.63;;;6.36;100.00
20019;BME280;10170;42.502;26.526;2023-03-01T09:37:35;100443.13;;;6.24;100.00
20019;BME280;10170;42.502;26.526;2023-03-01T09:40:05;100443.13;;;6.24;100.00
20019;BME280;10170;42.502;26.526;2023-03-01T09:42:34;100458.47;;;6.20;100.00
20019;BME280;10170;42.502;26.526;2023-03-01T09:45:11;100442.50;;;6.30;100.00
20019;BME280;10170;42.502;26.526;2023-03-01T09:47:42;100437.91;;;6.32;100.00
20019;BME280;10170;42.502;26.526;2023-03-01T09:50:13;100436.78;;;6.43;100.00
20019;BME280;10170;42.502;26.526;2023-03-01T09:53:06;100440.44;;;6.42;100.00
20019;BME280;10170;42.502;26.526;2023-03-01T10:01:35;100445.38;;;6.45;100.00
20019;BME280;10170;42.502;26.526;2023-03-01T10:09:23;100438.81;;;6.57;100.00
20019;BME280;10170;42.502;26.526;2023-03-01T10:11:52;100438.63;;;6.50;100.00
20019;BME280;10170;42.502;26.526;2023-03-01T10:17:39;100425.94;;;6.54;100.00
20019;BME280;10170;42.502;26.526;2023-03-01T10:20:19;100424.94;;;6.55;100.00
20019;BME280;10170;42.502;26.526;2023-03-01T10:22:46;100420.88;;;6.26;100.00
20019;BME280;10170;42.502;26.526;2023-03-01T10:25:52;100412.63;;;6.21;100.00
20019;BME280;10170;42.502;26.526;2023-03-01T10:28:29;100428.69;;;6.36;100.00
20019;BME280;10170;42.502;26.526;2023-03-01T10:30:58;100417.72;;;6.23;100.00
20019;BME280;10170;42.502;26.526;2023-03-01T10:33:43;100419.75;;;6.37;100.00
20019;BME280;10170;42.502;26.526;2023-03-01T10:36:10;100414.47;;;6.37;100.00
20019;BME280;10170;42.502;26.526;2023-03-01T10:41:15;100396.63;;;6.31;100.00
20019;BME280;10170;42.502;26.526;2023-03-01T10:43:47;100411.81;;;6.29;100.00
20019;BME280;10170;42.502;26.526;2023-03-01T10:46:31;100407.06;;;6.40;100.00
20019;BME280;10170;42.502;26.526;2023-03-01T10:49:18;100405.59;;;6.46;100.00
20019;BME280;10170;42.502;26.526;2023-03-01T10:51:49;100407.56;;;6.36;100.00
20019;BME280;10170;42.502;26.526;2023-03-01T10:54:21;100385.75;;;6.34;100.00
20019;BME280;10170;42.502;26.526;2023-03-01T10:57:00;100385.44;;;6.37;100.00
20019;BME280;10170;42.502;26.526;2023-03-01T10:59:36;100393.56;;;6.52;100.00
20019;BME280;10170;42.502;26.526;2023-03-01T11:02:30;100392.56;;;6.45;100.00
20019;BME280;10170;42.502;26.526;2023-03-01T11:05:17;100382.63;;;6.38;100.00
20019;BME280;10170;42.502;26.526;2023-03-01T11:07:53;100378.19;;;6.39;100.00
20019;BME280;10170;42.502;26.526;2023-03-01T11:10:33;100371.75;;;6.42;100.00
20019;BME280;10170;42.502;26.526;2023-03-01T11:13:19;100368.28;;;6.49;100.00
20019;BME280;10170;42.502;26.526;2023-03-01T11:16:00;100378.06;;;6.65;100.00
20019;BME280;10170;42.502;26.526;2023-03-01T11:18:29;100376.72;;;6.53;100.00
20019;BME280;10170;42.502;26.526;2023-03-01T11:21:12;100366.97;;;6.53;100.00
20019;BME280;10170;42.502;26.526;2023-03-01T11:23:39;100362.03;;;6.50;100.00
20019;BME280;10170;42.502;26.526;2023-03-01T11:26:08;100355.25;;;6.48;100.00
20019;BME280;10170;42.502;26.526;2023-03-01T11:28:40;100351.94;;;6.46;100.00
20019;BME280;10170;42.502;26.526;2023-03-01T11:31:10;100354.44;;;6.55;100.00
20019;BME280;10170;42.502;26.526;2023-03-01T11:33:55;100345.88;;;6.61;100.00
20019;BME280;10170;42.502;26.526;2023-03-01T11:36:47;100344.41;;;6.67;100.00
20019;BME280;10170;42.502;26.526;2023-03-01T11:41:48;100331.00;;;6.60;100.00
20019;BME280;10170;42.502;26.526;2023-03-01T11:44:24;100341.25;;;6.71;100.00
20019;BME280;10170;42.502;26.526;2023-03-01T11:50:18;100329.53;;;6.74;100.00
20019;BME280;10170;42.502;26.526;2023-03-01T12:18:48;100324.53;;;6.55;100.00
20019;BME280;10170;42.502;26.526;2023-03-01T12:21:34;100322.41;;;6.50;100.00
20019;BME280;10170;42.502;26.526;2023-03-01T12:24:09;100325.88;;;6.51;100.00
20019;BME280;10170;42.502;26.526;2023-03-01T12:32:36;100328.00;;;6.39;100.00
20019;BME280;10170;42.502;26.526;2023-03-01T12:46:32;100320.06;;;6.39;100.00
20019;BME280;10170;42.502;26.526;2023-03-01T12:49:08;100324.84;;;6.43;100.00
20019;BME280;10170;42.502;26.526;2023-03-01T12:51:38;100313.28;;;6.36;100.00
20019;BME280;10170;42.502;26.526;2023-03-01T12:54:16;100310.00;;;6.43;100.00
20019;BME280;10170;42.502;26.526;2023-03-01T12:56:48;100313.31;;;6.45;100.00
20019;BME280;10170;42.502;26.526;2023-03-01T13:04:37;100325.53;;;6.37;100.00
20019;BME280;10170;42.502;26.526;2023-03-01T13:12:49;100339.72;;;6.53;100.00
20019;BME280;10170;42.502;26.526;2023-03-01T13:20:34;100330.97;;;6.36;100.00
20019;BME280;10170;42.502;26.526;2023-03-01T13:30:58;100322.03;;;6.29;100.00
20019;BME280;10170;42.502;26.526;2023-03-01T13:35:58;100322.19;;;6.27;100.00
20019;BME280;10170;42.502;26.526;2023-03-01T13:41:14;100327.97;;;6.23;100.00
20019;BME280;10170;42.502;26.526;2023-03-01T13:43:43;100320.88;;;6.23;100.00
20019;BME280;10170;42.502;26.526;2023-03-01T13:48:38;100327.78;;;6.24;100.00
20019;BME280;10170;42.502;26.526;2023-03-01T13:51:10;100312.25;;;6.13;100.00
20019;BME280;10170;42.502;26.526;2023-03-01T13:53:46;100314.59;;;6.16;100.00
20019;BME280;10170;42.502;26.526;2023-03-01T13:56:24;100318.53;;;6.20;100.00
20019;BME280;10170;42.502;26.526;2023-03-01T13:58:59;100318.53;;;6.20;100.00
20019;BME280;10170;42.502;26.526;2023-03-01T14:01:33;100314.25;;;6.19;100.00
20019;BME280;10170;42.502;26.526;2023-03-01T14:04:03;100325.31;;;6.23;100.00
20019;BME280;10170;42.502;26.526;2023-03-01T14:06:32;100319.38;;;6.13;100.00
20019;BME280;10170;42.502;26.526;2023-03-01T14:09:16;100320.38;;;6.20;100.00
20019;BME280;10170;42.502;26.526;2023-03-01T14:11:56;100336.72;;;6.23;100.00
20019;BME280;10170;42.502;26.526;2023-03-01T14:14:44;100333.91;;;6.25;100.00
20019;BME280;10170;42.502;26.526;2023-03-01T14:17:27;100335.53;;;6.18;100.00
20019;BME280;10170;42.502;26.526;2023-03-01T14:19:59;100320.16;;;6.13;100.00
20019;BME280;10170;42.502;26.526;2023-03-01T14:22:32;100322.81;;;6.13;100.00
20019;BME280;10170;42.502;26.526;2023-03-01T14:27:38;100315.56;;;6.15;100.00
20019;BME280;10170;42.502;26.526;2023-03-01T14:30:15;100292.59;;;6.00;100.00
20019;BME280;10170;42.502;26.526;2023-03-01T14:32:57;100339.31;;;6.15;100.00
20019;BME280;10170;42.502;26.526;2023-03-01T14:35:30;100321.50;;;6.17;100.00
20019;BME280;10170;42.502;26.526;2023-03-01T14:37:57;100317.88;;;6.18;100.00
20019;BME280;10170;42.502;26.526;2023-03-01T14:40:44;100316.44;;;6.32;100.00
20019;BME280;10170;42.502;26.526;2023-03-01T14:43:16;100318.91;;;6.25;100.00
20019;BME280;10170;42.502;26.526;2023-03-01T14:45:49;100322.13;;;6.11;100.00
20019;BME280;10170;42.502;26.526;2023-03-01T14:48:17;100315.91;;;6.20;100.00
20019;BME280;10170;42.502;26.526;2023-03-01T14:50:45;100267.16;;;5.91;100.00
20019;BME280;10170;42.502;26.526;2023-03-01T14:53:26;100235.47;;;5.83;100.00
20019;BME280;10170;42.502;26.526;2023-03-01T14:55:56;100305.16;;;6.14;100.00
20019;BME280;10170;42.502;26.526;2023-03-01T14:58:27;100258.97;;;5.68;100.00
20019;BME280;10170;42.502;26.526;2023-03-01T15:00:56;100314.56;;;6.08;100.00